地図

経路データ

SID SEASON NUMBER BASIN SUBBASIN NAME ISO_TIME NATURE LAT LON WMO_WIND WMO_PRES WMO_AGENCY TRACK_TYPE DIST2LAND LANDFALL IFLAG USA_AGENCY USA_ATCF_ID USA_LAT USA_LON USA_RECORD USA_STATUS USA_WIND USA_PRES USA_SSHS USA_R34_NE USA_R34_SE USA_R34_SW USA_R34_NW USA_R50_NE USA_R50_SE USA_R50_SW USA_R50_NW USA_R64_NE USA_R64_SE USA_R64_SW USA_R64_NW USA_POCI USA_ROCI USA_RMW USA_EYE TOKYO_LAT TOKYO_LON TOKYO_GRADE TOKYO_WIND TOKYO_PRES TOKYO_R50_DIR TOKYO_R50_LONG TOKYO_R50_SHORT TOKYO_R30_DIR TOKYO_R30_LONG TOKYO_R30_SHORT TOKYO_LAND CMA_LAT CMA_LON CMA_CAT CMA_WIND CMA_PRES HKO_LAT HKO_LON HKO_CAT HKO_WIND HKO_PRES NEWDELHI_LAT NEWDELHI_LON NEWDELHI_GRADE NEWDELHI_WIND NEWDELHI_PRES NEWDELHI_CI NEWDELHI_DP NEWDELHI_POCI REUNION_LAT REUNION_LON REUNION_TYPE REUNION_WIND REUNION_PRES REUNION_TNUM REUNION_CI REUNION_RMW REUNION_R34_NE REUNION_R34_SE REUNION_R34_SW REUNION_R34_NW REUNION_R50_NE REUNION_R50_SE REUNION_R50_SW REUNION_R50_NW REUNION_R64_NE REUNION_R64_SE REUNION_R64_SW REUNION_R64_NW BOM_LAT BOM_LON BOM_TYPE BOM_WIND BOM_PRES BOM_TNUM BOM_CI BOM_RMW BOM_R34_NE BOM_R34_SE BOM_R34_SW BOM_R34_NW BOM_R50_NE BOM_R50_SE BOM_R50_SW BOM_R50_NW BOM_R64_NE BOM_R64_SE BOM_R64_SW BOM_R64_NW BOM_ROCI BOM_POCI BOM_EYE BOM_POS_METHOD BOM_PRES_METHOD NADI_LAT NADI_LON NADI_CAT NADI_WIND NADI_PRES WELLINGTON_LAT WELLINGTON_LON WELLINGTON_WIND WELLINGTON_PRES DS824_LAT DS824_LON DS824_STAGE DS824_WIND DS824_PRES TD9636_LAT TD9636_LON TD9636_STAGE TD9636_WIND TD9636_PRES TD9635_LAT TD9635_LON TD9635_WIND TD9635_PRES TD9635_ROCI NEUMANN_LAT NEUMANN_LON NEUMANN_CLASS NEUMANN_WIND NEUMANN_PRES MLC_LAT MLC_LON MLC_CLASS MLC_WIND MLC_PRES USA_GUST BOM_GUST BOM_GUST_PER REUNION_GUST REUNION_GUST_PER USA_SEAHGT USA_SEARAD_NE USA_SEARAD_SE USA_SEARAD_SW USA_SEARAD_NW STORM_SPEED STORM_DIR
1958221N17340 1958 64 NA NA BECKY 1958-08-08 12:00:00 TS 16.5000 -20.5000 25 hurdat_atl main 379 379 O_____________ hurdat_atl AL021958 16.5000 -20.5000 TD 25 -1 12 280
1958221N17340 1958 64 NA NA BECKY 1958-08-08 15:00:00 TS 16.6029 -21.1348 main 440 440 P_____________ AL021958 16.6029 -21.1348 TD 25 -1 13 279
1958221N17340 1958 64 NA NA BECKY 1958-08-08 18:00:00 TS 16.7000 -21.8000 25 hurdat_atl main 511 511 O_____________ hurdat_atl AL021958 16.7000 -21.8000 TD 25 -1 13 278
1958221N17340 1958 64 NA NA BECKY 1958-08-08 21:00:00 TS 16.7922 -22.5202 main 584 584 P_____________ AL021958 16.7922 -22.5202 TD 27 -1 15 278
1958221N17340 1958 64 NA NA BECKY 1958-08-09 00:00:00 TS 16.9000 -23.3000 30 hurdat_atl main 667 667 O_____________ hurdat_atl AL021958 16.9000 -23.3000 TD 30 -1 16 280
1958221N17340 1958 64 NA NA BECKY 1958-08-09 03:00:00 TS 17.0497 -24.1274 main 751 751 P_____________ AL021958 17.0497 -24.1274 TD 32 -1 17 280
1958221N17340 1958 64 NA NA BECKY 1958-08-09 06:00:00 TS 17.2000 -25.0000 35 hurdat_atl main 849 849 O_____________ hurdat_atl AL021958 17.2000 -25.0000 TS 35 0 17 279
1958221N17340 1958 64 NA NA BECKY 1958-08-09 09:00:00 TS 17.3147 -25.8926 main 943 943 P_____________ AL021958 17.3147 -25.8926 TS 37 0 17 277
1958221N17340 1958 64 NA NA BECKY 1958-08-09 12:00:00 TS 17.4000 -26.8000 40 hurdat_atl main 1038 1038 O_____________ hurdat_atl AL021958 17.4000 -26.8000 TS 40 0 17 275
1958221N17340 1958 64 NA NA BECKY 1958-08-09 15:00:00 TS 17.4646 -27.7000 main 1133 1133 P_____________ AL021958 17.4646 -27.7000 TS 42 0 17 273
1958221N17340 1958 64 NA NA BECKY 1958-08-09 18:00:00 TS 17.5000 -28.6000 45 hurdat_atl main 1226 1226 O_____________ hurdat_atl AL021958 17.5000 -28.6000 TS 45 0 17 271
1958221N17340 1958 64 NA NA BECKY 1958-08-09 21:00:00 TS 17.5071 -29.5001 main 1319 1319 P_____________ AL021958 17.5071 -29.5001 TS 45 0 17 270
1958221N17340 1958 64 NA NA BECKY 1958-08-10 00:00:00 TS 17.5000 -30.4000 45 hurdat_atl main 1413 1413 O_____________ hurdat_atl AL021958 17.5000 -30.4000 TS 45 0 17 270
1958221N17340 1958 64 NA NA BECKY 1958-08-10 03:00:00 TS 17.4996 -31.3000 main 1507 1507 P_____________ AL021958 17.4996 -31.3000 TS 45 0 17 270
1958221N17340 1958 64 NA NA BECKY 1958-08-10 06:00:00 TS 17.5000 -32.2000 45 hurdat_atl main 1601 1601 O_____________ hurdat_atl AL021958 17.5000 -32.2000 TS 45 0 17 270
1958221N17340 1958 64 NA NA BECKY 1958-08-10 09:00:00 TS 17.4996 -33.1000 main 1695 1695 P_____________ AL021958 17.4996 -33.1000 TS 45 0 17 270
1958221N17340 1958 64 NA NA BECKY 1958-08-10 12:00:00 TS 17.5000 -34.0000 45 hurdat_atl main 1790 1790 O_____________ hurdat_atl AL021958 17.5000 -34.0000 TS 45 0 17 270
1958221N17340 1958 64 NA NA BECKY 1958-08-10 15:00:00 TS 17.4993 -34.8775 main 1884 1884 P_____________ AL021958 17.4993 -34.8775 TS 45 0 17 270
1958221N17340 1958 64 NA NA BECKY 1958-08-10 18:00:00 TS 17.5000 -35.8000 45 hurdat_atl main 1979 1979 O_____________ hurdat_atl AL021958 17.5000 -35.8000 TS 45 0 19 270
1958221N17340 1958 64 NA NA BECKY 1958-08-10 21:00:00 TS 17.4923 -36.8277 main 2085 2085 P_____________ AL021958 17.4923 -36.8277 TS 45 0 20 270
1958221N17340 1958 64 NA NA BECKY 1958-08-11 00:00:00 TS 17.5000 -37.9000 45 hurdat_atl main 2078 2002 O_____________ hurdat_atl AL021958 17.5000 -37.9000 TS 45 0 20 271
1958221N17340 1958 64 NA NA BECKY 1958-08-11 03:00:00 TS 17.5421 -38.9574 main 1995 1939 P_____________ AL021958 17.5421 -38.9574 TS 45 0 20 273
1958221N17340 1958 64 NA NA BECKY 1958-08-11 06:00:00 TS 17.6000 -40.0000 45 hurdat_atl main 1932 1864 O_____________ hurdat_atl AL021958 17.6000 -40.0000 TS 45 0 20 273
1958221N17340 1958 64 NA NA BECKY 1958-08-11 09:00:00 TS 17.6419 -41.0077 main 1864 1816 P_____________ AL021958 17.6419 -41.0077 TS 45 0 19 273
1958221N17340 1958 64 NA NA BECKY 1958-08-11 12:00:00 TS 17.7000 -42.0000 45 hurdat_atl main 1810 1761 O_____________ hurdat_atl AL021958 17.7000 -42.0000 TS 45 0 19 275
1958221N17340 1958 64 NA NA BECKY 1958-08-11 15:00:00 TS 17.7919 -42.9925 main 1755 1708 P_____________ AL021958 17.7919 -42.9925 TS 45 0 19 276
1958221N17340 1958 64 NA NA BECKY 1958-08-11 18:00:00 TS 17.9000 -44.0000 45 hurdat_atl main 1702 1654 O_____________ hurdat_atl AL021958 17.9000 -44.0000 TS 45 0 20 276
1958221N17340 1958 64 NA NA BECKY 1958-08-11 21:00:00 TS 18.0069 -45.0350 main 1654 1612 P_____________ AL021958 18.0069 -45.0350 TS 45 0 20 276
1958221N17340 1958 64 NA NA BECKY 1958-08-12 00:00:00 TS 18.1000 -46.1000 45 hurdat_atl main 1607 1565 O_____________ hurdat_atl AL021958 18.1000 -46.1000 TS 45 0 21 274
1958221N17340 1958 64 NA NA BECKY 1958-08-12 03:00:00 TS 18.1570 -47.1927 main 1567 1523 P_____________ AL021958 18.1570 -47.1927 TS 45 0 21 273
1958221N17340 1958 64 NA NA BECKY 1958-08-12 06:00:00 TS 18.2000 -48.3000 45 hurdat_atl main 1519 1476 O_____________ hurdat_atl AL021958 18.2000 -48.3000 TS 45 0 21 272
1958221N17340 1958 64 NA NA BECKY 1958-08-12 09:00:00 TS 18.2416 -49.3853 main 1472 1422 P_____________ AL021958 18.2416 -49.3853 TS 45 0 21 273
1958221N17340 1958 64 NA NA BECKY 1958-08-12 12:00:00 TS 18.3000 -50.5000 45 hurdat_atl main 1414 1328 O_____________ hurdat_atl AL021958 18.3000 -50.5000 TS 45 0 22 274
1958221N17340 1958 64 NA NA BECKY 1958-08-12 15:00:00 TS 18.3849 -51.7076 main 1320 1241 P_____________ AL021958 18.3849 -51.7076 TS 45 0 23 275
1958221N17340 1958 64 NA NA BECKY 1958-08-12 18:00:00 TS 18.5000 -52.9000 45 1006 hurdat_atl main 1233 1168 O_____________ hurdat_atl AL021958 18.5000 -52.9000 TS 45 1006 0 22 277
1958221N17340 1958 64 NA NA BECKY 1958-08-12 21:00:00 TS 18.6345 -54.0026 main 1161 1118 P_____________ AL021958 18.6345 -54.0026 TS 45 0 20 279
1958221N17340 1958 64 NA NA BECKY 1958-08-13 00:00:00 TS 18.8000 -55.0000 45 hurdat_atl main 1112 1034 O_____________ hurdat_atl AL021958 18.8000 -55.0000 TS 45 0 18 281
1958221N17340 1958 64 NA NA BECKY 1958-08-13 03:00:00 TS 18.9767 -55.8804 main 1023 941 P_____________ AL021958 18.9767 -55.8804 TS 45 0 17 284
1958221N17340 1958 64 NA NA BECKY 1958-08-13 06:00:00 TS 19.2000 -56.7000 45 hurdat_atl main 941 860 O_____________ hurdat_atl AL021958 19.2000 -56.7000 TS 45 0 16 288
1958221N17340 1958 64 NA NA BECKY 1958-08-13 09:00:00 TS 19.4843 -57.5277 main 860 782 P_____________ AL021958 19.4843 -57.5277 TS 45 0 17 291
1958221N17340 1958 64 NA NA BECKY 1958-08-13 12:00:00 TS 19.8000 -58.4000 45 hurdat_atl main 772 685 O_____________ hurdat_atl AL021958 19.8000 -58.4000 TS 45 0 18 289
1958221N17340 1958 64 NA NA BECKY 1958-08-13 15:00:00 TS 20.0773 -59.3782 main 678 599 P_____________ AL021958 20.0773 -59.3782 TS 42 0 20 288
1958221N17340 1958 64 NA NA BECKY 1958-08-13 18:00:00 TS 20.4000 -60.4000 40 hurdat_atl main 589 524 O_____________ hurdat_atl AL021958 20.4000 -60.4000 TS 40 0 20 292
1958221N17340 1958 64 NA NA BECKY 1958-08-13 21:00:00 TS 20.8265 -61.3779 main 515 466 P_____________ AL021958 20.8265 -61.3779 TS 40 0 21 296
1958221N17340 1958 64 NA NA BECKY 1958-08-14 00:00:00 TS 21.3000 -62.4000 40 hurdat_atl main 466 434 O_____________ hurdat_atl AL021958 21.3000 -62.4000 TS 40 0 22 295
1958221N17340 1958 64 NA NA BECKY 1958-08-14 03:00:00 TS 21.7565 -63.4982 main 438 428 P_____________ AL021958 21.7565 -63.4982 TS 40 0 23 293
1958221N17340 1958 64 NA NA BECKY 1958-08-14 06:00:00 TS 22.2000 -64.7000 40 hurdat_atl main 435 433 O_____________ hurdat_atl AL021958 22.2000 -64.7000 TS 40 0 25 290
1958221N17340 1958 64 NA NA BECKY 1958-08-14 09:00:00 TS 22.5926 -66.0434 main 469 457 P_____________ AL021958 22.5926 -66.0434 TS 40 0 26 288
1958221N17340 1958 64 NA NA BECKY 1958-08-14 12:00:00 TS 23.0000 -67.4000 40 hurdat_atl main 458 447 O_____________ hurdat_atl AL021958 23.0000 -67.4000 TS 40 0 26 290
1958221N17340 1958 64 NA NA BECKY 1958-08-14 15:00:00 TS 23.4618 -68.6607 main 456 449 P_____________ AL021958 23.4618 -68.6607 TS 40 0 24 294
1958221N17340 1958 64 NA NA BECKY 1958-08-14 18:00:00 TS 24.0000 -69.8000 40 hurdat_atl main 453 434 O_____________ hurdat_atl AL021958 24.0000 -69.8000 TS 40 0 23 300
1958221N17340 1958 64 NA NA BECKY 1958-08-14 21:00:00 TS 24.5967 -70.8185 main 441 436 P_____________ AL021958 24.5967 -70.8185 TS 40 0 22 307
1958221N17340 1958 64 NA NA BECKY 1958-08-15 00:00:00 TS 25.3000 -71.7000 40 hurdat_atl main 477 477 O_____________ hurdat_atl AL021958 25.3000 -71.7000 TS 40 0 22 315
1958221N17340 1958 64 NA NA BECKY 1958-08-15 03:00:00 TS 26.1348 -72.5394 main 550 523 P_____________ AL021958 26.1348 -72.5394 TS 40 0 22 322
1958221N17340 1958 64 NA NA BECKY 1958-08-15 06:00:00 TS 27.0000 -73.2000 40 hurdat_atl main 523 515 O_____________ hurdat_atl AL021958 27.0000 -73.2000 TS 40 0 20 329
1958221N17340 1958 64 NA NA BECKY 1958-08-15 09:00:00 TS 27.8019 -73.6632 main 523 523 P_____________ AL021958 27.8019 -73.6632 TS 40 0 16 338
1958221N17340 1958 64 NA NA BECKY 1958-08-15 12:00:00 TS 28.5000 -73.9000 40 hurdat_atl main 556 556 O_____________ hurdat_atl AL021958 28.5000 -73.9000 TS 40 0 12 348
1958221N17340 1958 64 NA NA BECKY 1958-08-15 15:00:00 TS 28.9998 -73.9608 main 588 588 P_____________ AL021958 28.9998 -73.9608 TS 40 0 10 1
1958221N17340 1958 64 NA NA BECKY 1958-08-15 18:00:00 TS 29.5000 -73.9000 40 hurdat_atl main 625 557 O_____________ hurdat_atl AL021958 29.5000 -73.9000 TS 40 0 12 4
1958221N17340 1958 64 NA NA BECKY 1958-08-15 21:00:00 TS 30.2350 -73.8576 main 557 483 P_____________ AL021958 30.2350 -73.8576 TS 40 0 15 3
1958221N17340 1958 64 NA NA BECKY 1958-08-16 00:00:00 TS 31.0000 -73.8000 40 hurdat_atl main 483 427 O_____________ hurdat_atl AL021958 31.0000 -73.8000 TS 40 0 14 2
1958221N17340 1958 64 NA NA BECKY 1958-08-16 03:00:00 TS 31.6148 -73.7940 main 427 380 P_____________ AL021958 31.6148 -73.7940 TS 40 0 12 4
1958221N17340 1958 64 NA NA BECKY 1958-08-16 06:00:00 TS 32.2000 -73.7000 40 hurdat_atl main 380 348 O_____________ hurdat_atl AL021958 32.2000 -73.7000 TS 40 0 13 15
1958221N17340 1958 64 NA NA BECKY 1958-08-16 09:00:00 TS 32.8425 -73.4101 main 355 338 P_____________ AL021958 32.8425 -73.4101 TS 40 0 14 24
1958221N17340 1958 64 NA NA BECKY 1958-08-16 12:00:00 TS 33.5000 -73.0000 40 1004 hurdat_atl main 340 310 O_____________ hurdat_atl AL021958 33.5000 -73.0000 TS 40 1004 0 14 24
1958221N17340 1958 64 NA NA BECKY 1958-08-16 15:00:00 TS 34.1317 -72.7249 main 317 305 P_____________ AL021958 34.1317 -72.7249 TS 42 0 15 30
1958221N17340 1958 64 NA NA BECKY 1958-08-16 18:00:00 TS 34.8000 -72.1000 45 hurdat_atl main 327 327 O_____________ hurdat_atl AL021958 34.8000 -72.1000 TS 45 0 21 51
1958221N17340 1958 64 NA NA BECKY 1958-08-16 21:00:00 TS 35.4320 -70.7384 main 435 433 P_____________ AL021958 35.4320 -70.7384 TS 47 0 29 59
1958221N17340 1958 64 NA NA BECKY 1958-08-17 00:00:00 TS 36.3000 -69.0000 50 hurdat_atl main 582 517 O_____________ hurdat_atl AL021958 36.3000 -69.0000 TS 50 0 36 52
1958221N17340 1958 64 NA NA BECKY 1958-08-17 03:00:00 TS 37.6152 -67.2578 main 511 469 P_____________ AL021958 37.6152 -67.2578 TS 52 0 40 44
1958221N17340 1958 64 NA NA BECKY 1958-08-17 06:00:00 TS 39.2000 -65.5000 55 hurdat_atl main 470 318 O_____________ hurdat_atl AL021958 39.2000 -65.5000 TS 55 0 42 39
1958221N17340 1958 64 NA NA BECKY 1958-08-17 09:00:00 TS 40.8471 -63.8723 main 321 242 P_____________ AL021958 40.8471 -63.8723 TS 57 0 41 36
1958221N17340 1958 64 NA NA BECKY 1958-08-17 12:00:00 TS 42.5000 -62.3000 60 hurdat_atl main 235 O_____________ hurdat_atl AL021958 42.5000 -62.3000 TS 60 0 40 35

IBTrACS Databaseについて

本データベースは、米国NOAAが公開する1842年以降の世界の熱帯低気圧のベストトラックデータアーカイブInternational Best Track Archive for Climate Stewardship (IBTrACS)を、ウェブで閲覧しやすい形式に変換したものです。

最終更新日:2021-10-08